Time;durP1;ratioP1;P1;durP2;ratioP2;P2;SDS_P1;SDS_P2;PMS_P1;PMS_P2;Temp;Humidity;BMP_temperature;BMP_pressure;BME280_temperature;BME280_humidity;BME280_pressure;Samples;Min_cycle;Max_cycle;Signal;HPM_P1;HPM_P2
2020/10/26 00:00:18;;;;;;;10.6;8.25;;;;;;;6.36;83.87793;94047.19;;;;
2020/10/26 00:01:19;;;;;;;10.6;8.25;;;;;;;6.36;83.87793;94047.19;;;;
2020/10/26 00:02:20;;;;;;;10.6;8.25;;;;;;;6.36;83.87793;94047.19;;;;
2020/10/26 00:03:21;;;;;;;10.6;8.25;;;;;;;6.36;83.87793;94047.19;;;;
2020/10/26 00:04:22;;;;;;;10.6;8.25;;;;;;;6.36;83.87793;94047.19;;;;
2020/10/26 00:05:22;;;;;;;10.6;8.25;;;;;;;6.36;83.87793;94047.19;;;;
2020/10/26 00:06:23;;;;;;;10.6;8.25;;;;;;;6.36;83.87793;94047.19;;;;
2020/10/26 00:07:23;;;;;;;10.6;8.25;;;;;;;6.36;83.87793;94047.19;;;;
2020/10/26 00:08:24;;;;;;;10.6;8.25;;;;;;;6.36;83.87793;94047.19;;;;
2020/10/26 00:09:24;;;;;;;10.35;7.7;;;;;;;6.54;84.09082;94047.09;;;;
2020/10/26 00:10:25;;;;;;;10.35;7.7;;;;;;;6.54;84.09082;94047.09;;;;
2020/10/26 00:11:26;;;;;;;10.35;7.7;;;;;;;6.54;84.09082;94047.09;;;;
2020/10/26 00:12:26;;;;;;;10.35;7.7;;;;;;;6.54;84.09082;94047.09;;;;
2020/10/26 00:13:27;;;;;;;10.35;7.7;;;;;;;6.54;84.09082;94047.09;;;;
2020/10/26 00:14:27;;;;;;;10.35;7.7;;;;;;;6.54;84.09082;94047.09;;;;
2020/10/26 00:15:28;;;;;;;10.35;7.7;;;;;;;6.54;84.09082;94047.09;;;;
2020/10/26 00:16:28;;;;;;;10.35;7.7;;;;;;;6.54;84.09082;94047.09;;;;
2020/10/26 00:17:29;;;;;;;10.35;7.7;;;;;;;6.54;84.09082;94047.09;;;;
2020/10/26 00:18:29;;;;;;;10.35;7.7;;;;;;;6.54;84.09082;94047.09;;;;
2020/10/26 00:19:30;;;;;;;10.35;7.7;;;;;;;6.54;84.09082;94047.09;;;;
2020/10/26 00:20:31;;;;;;;9.700001;7.549999;;;;;;;6.79;84.25586;94041.24;;;;
2020/10/26 00:21:31;;;;;;;9.700001;7.549999;;;;;;;6.79;84.25586;94041.24;;;;
2020/10/26 00:22:32;;;;;;;9.700001;7.549999;;;;;;;6.79;84.25586;94041.24;;;;
2020/10/26 00:23:32;;;;;;;9.700001;7.549999;;;;;;;6.79;84.25586;94041.24;;;;
2020/10/26 00:24:33;;;;;;;9.700001;7.549999;;;;;;;6.79;84.25586;94041.24;;;;
2020/10/26 00:25:33;;;;;;;9.700001;7.549999;;;;;;;6.79;84.25586;94041.24;;;;
2020/10/26 00:26:34;;;;;;;9.700001;7.549999;;;;;;;6.79;84.25586;94041.24;;;;
2020/10/26 00:27:35;;;;;;;9.700001;7.549999;;;;;;;6.79;84.25586;94041.24;;;;
2020/10/26 00:28:36;;;;;;;9.700001;7.549999;;;;;;;6.79;84.25586;94041.24;;;;
2020/10/26 00:29:36;;;;;;;9.700001;7.549999;;;;;;;6.79;84.25586;94041.24;;;;
2020/10/26 00:30:37;;;;;;;9.549999;7.450001;;;;;;;6.91;84.43848;94028.55;;;;
2020/10/26 00:31:37;;;;;;;9.549999;7.450001;;;;;;;6.91;84.43848;94028.55;;;;
2020/10/26 00:32:38;;;;;;;9.549999;7.450001;;;;;;;6.91;84.43848;94028.55;;;;
2020/10/26 00:33:39;;;;;;;9.549999;7.450001;;;;;;;6.91;84.43848;94028.55;;;;
2020/10/26 00:34:39;;;;;;;9.549999;7.450001;;;;;;;6.91;84.43848;94028.55;;;;
2020/10/26 00:35:40;;;;;;;9.549999;7.450001;;;;;;;6.91;84.43848;94028.55;;;;
2020/10/26 00:36:43;;;;;;;9.549999;7.450001;;;;;;;6.91;84.43848;94028.55;;;;
2020/10/26 00:37:43;;;;;;;9.549999;7.450001;;;;;;;6.91;84.43848;94028.55;;;;
2020/10/26 00:38:44;;;;;;;9.549999;7.450001;;;;;;;6.91;84.43848;94028.55;;;;
2020/10/26 00:39:44;;;;;;;9.549999;7.450001;;;;;;;6.91;84.43848;94028.55;;;;
2020/10/26 00:40:45;;;;;;;9.549999;7.450001;;;;;;;6.91;84.43848;94028.55;;;;
2020/10/26 00:41:45;;;;;;;6.55;5.849999;;;;;;;7.06;84.74121;94010.94;;;;
2020/10/26 00:42:46;;;;;;;6.55;5.849999;;;;;;;7.06;84.74121;94010.94;;;;
2020/10/26 00:43:46;;;;;;;6.55;5.849999;;;;;;;7.06;84.74121;94010.94;;;;
2020/10/26 00:44:47;;;;;;;6.55;5.849999;;;;;;;7.06;84.74121;94010.94;;;;
2020/10/26 00:45:47;;;;;;;6.55;5.849999;;;;;;;7.06;84.74121;94010.94;;;;
2020/10/26 00:46:48;;;;;;;6.55;5.849999;;;;;;;7.06;84.74121;94010.94;;;;
2020/10/26 00:47:48;;;;;;;6.55;5.849999;;;;;;;7.06;84.74121;94010.94;;;;
2020/10/26 00:48:51;;;;;;;6.55;5.849999;;;;;;;7.06;84.74121;94010.94;;;;
2020/10/26 00:49:51;;;;;;;6.55;5.849999;;;;;;;7.06;84.74121;94010.94;;;;
2020/10/26 00:50:52;;;;;;;6.55;5.849999;;;;;;;7.06;84.74121;94010.94;;;;
2020/10/26 00:51:52;;;;;;;6.55;5.849999;;;;;;;7.06;84.74121;94010.94;;;;
2020/10/26 00:52:53;;;;;;;7.400001;6.249999;;;;;;;7.04;85.08887;93978.58;;;;
2020/10/26 00:53:53;;;;;;;7.400001;6.249999;;;;;;;7.04;85.08887;93978.58;;;;
2020/10/26 00:54:54;;;;;;;7.400001;6.249999;;;;;;;7.04;85.08887;93978.58;;;;
2020/10/26 00:55:54;;;;;;;7.400001;6.249999;;;;;;;7.04;85.08887;93978.58;;;;
2020/10/26 00:56:55;;;;;;;7.400001;6.249999;;;;;;;7.04;85.08887;93978.58;;;;
2020/10/26 00:58:02;;;;;;;7.400001;6.249999;;;;;;;7.04;85.08887;93978.58;;;;
2020/10/26 00:59:02;;;;;;;7.400001;6.249999;;;;;;;7.04;85.08887;93978.58;;;;
2020/10/26 01:00:03;;;;;;;7.400001;6.249999;;;;;;;7.04;85.08887;93978.58;;;;
2020/10/26 01:01:04;;;;;;;7.400001;6.249999;;;;;;;7.04;85.08887;93978.58;;;;
2020/10/26 01:02:05;;;;;;;7.400001;6.249999;;;;;;;7.04;85.08887;93978.58;;;;
2020/10/26 01:03:06;;;;;;;6.199999;5.450001;;;;;;;7.05;85.48242;93974.85;;;;
2020/10/26 01:04:07;;;;;;;6.199999;5.450001;;;;;;;7.05;85.48242;93974.85;;;;
2020/10/26 01:05:07;;;;;;;6.199999;5.450001;;;;;;;7.05;85.48242;93974.85;;;;
2020/10/26 01:06:08;;;;;;;6.199999;5.450001;;;;;;;7.05;85.48242;93974.85;;;;
2020/10/26 01:07:10;;;;;;;6.199999;5.450001;;;;;;;7.05;85.48242;93974.85;;;;
2020/10/26 01:08:10;;;;;;;6.199999;5.450001;;;;;;;7.05;85.48242;93974.85;;;;
2020/10/26 01:09:11;;;;;;;6.199999;5.450001;;;;;;;7.05;85.48242;93974.85;;;;
2020/10/26 01:10:12;;;;;;;6.199999;5.450001;;;;;;;7.05;85.48242;93974.85;;;;
2020/10/26 01:11:13;;;;;;;6.199999;5.450001;;;;;;;7.05;85.48242;93974.85;;;;
2020/10/26 01:12:13;;;;;;;6.199999;5.450001;;;;;;;7.05;85.48242;93974.85;;;;
2020/10/26 01:13:14;;;;;;;6.199999;5.450001;;;;;;;7.05;85.48242;93974.85;;;;
2020/10/26 01:14:14;;;;;;;7.45;5.600001;;;;;;;6.98;85.82715;93964;;;;
2020/10/26 01:15:15;;;;;;;7.45;5.600001;;;;;;;6.98;85.82715;93964;;;;
2020/10/26 01:16:16;;;;;;;7.45;5.600001;;;;;;;6.98;85.82715;93964;;;;
2020/10/26 01:17:16;;;;;;;7.45;5.600001;;;;;;;6.98;85.82715;93964;;;;
2020/10/26 01:18:17;;;;;;;7.45;5.600001;;;;;;;6.98;85.82715;93964;;;;
2020/10/26 01:19:17;;;;;;;7.45;5.600001;;;;;;;6.98;85.82715;93964;;;;
2020/10/26 01:20:18;;;;;;;7.45;5.600001;;;;;;;6.98;85.82715;93964;;;;
2020/10/26 01:21:18;;;;;;;7.45;5.600001;;;;;;;6.98;85.82715;93964;;;;
2020/10/26 01:22:19;;;;;;;7.45;5.600001;;;;;;;6.98;85.82715;93964;;;;
2020/10/26 01:23:20;;;;;;;7.45;5.600001;;;;;;;6.98;85.82715;93964;;;;
2020/10/26 01:24:20;;;;;;;7.15;5.45;;;;;;;6.97;86.15234;93937.28;;;;
2020/10/26 01:25:21;;;;;;;7.15;5.45;;;;;;;6.97;86.15234;93937.28;;;;
2020/10/26 01:26:21;;;;;;;7.15;5.45;;;;;;;6.97;86.15234;93937.28;;;;
2020/10/26 01:27:22;;;;;;;7.15;5.45;;;;;;;6.97;86.15234;93937.28;;;;
2020/10/26 01:28:22;;;;;;;7.15;5.45;;;;;;;6.97;86.15234;93937.28;;;;
2020/10/26 01:29:23;;;;;;;7.15;5.45;;;;;;;6.97;86.15234;93937.28;;;;
2020/10/26 01:30:23;;;;;;;7.15;5.45;;;;;;;6.97;86.15234;93937.28;;;;
2020/10/26 01:31:24;;;;;;;7.15;5.45;;;;;;;6.97;86.15234;93937.28;;;;
2020/10/26 01:32:25;;;;;;;7.15;5.45;;;;;;;6.97;86.15234;93937.28;;;;
2020/10/26 01:33:26;;;;;;;7.15;5.45;;;;;;;6.97;86.15234;93937.28;;;;
2020/10/26 01:34:26;;;;;;;7.15;5.45;;;;;;;6.97;86.15234;93937.28;;;;
2020/10/26 01:35:27;;;;;;;7.4;5.299999;;;;;;;6.94;86.36914;93963.69;;;;
2020/10/26 01:36:27;;;;;;;7.4;5.299999;;;;;;;6.94;86.36914;93963.69;;;;
2020/10/26 01:37:28;;;;;;;7.4;5.299999;;;;;;;6.94;86.36914;93963.69;;;;
2020/10/26 01:38:28;;;;;;;7.4;5.299999;;;;;;;6.94;86.36914;93963.69;;;;
2020/10/26 01:39:29;;;;;;;7.4;5.299999;;;;;;;6.94;86.36914;93963.69;;;;
2020/10/26 01:40:30;;;;;;;7.4;5.299999;;;;;;;6.94;86.36914;93963.69;;;;
2020/10/26 01:41:30;;;;;;;7.4;5.299999;;;;;;;6.94;86.36914;93963.69;;;;
2020/10/26 01:42:31;;;;;;;7.4;5.299999;;;;;;;6.94;86.36914;93963.69;;;;
2020/10/26 01:43:31;;;;;;;7.4;5.299999;;;;;;;6.94;86.36914;93963.69;;;;
2020/10/26 01:44:32;;;;;;;7.4;5.299999;;;;;;;6.94;86.36914;93963.69;;;;
2020/10/26 01:45:32;;;;;;;5.45;4.9;;;;;;;7;86.53906;93943.11;;;;
2020/10/26 01:46:33;;;;;;;5.45;4.9;;;;;;;7;86.53906;93943.11;;;;
2020/10/26 01:47:33;;;;;;;5.45;4.9;;;;;;;7;86.53906;93943.11;;;;
2020/10/26 01:48:34;;;;;;;5.45;4.9;;;;;;;7;86.53906;93943.11;;;;
2020/10/26 01:49:34;;;;;;;5.45;4.9;;;;;;;7;86.53906;93943.11;;;;
2020/10/26 01:50:39;;;;;;;5.45;4.9;;;;;;;7;86.53906;93943.11;;;;
2020/10/26 01:51:40;;;;;;;5.45;4.9;;;;;;;7;86.53906;93943.11;;;;
2020/10/26 01:52:41;;;;;;;5.45;4.9;;;;;;;7;86.53906;93943.11;;;;
2020/10/26 01:53:42;;;;;;;5.45;4.9;;;;;;;7;86.53906;93943.11;;;;
2020/10/26 01:54:43;;;;;;;5.45;4.9;;;;;;;7;86.53906;93943.11;;;;
2020/10/26 01:55:43;;;;;;;5.45;4.9;;;;;;;7;86.53906;93943.11;;;;
2020/10/26 01:56:44;;;;;;;7.749999;5.1;;;;;;;6.97;86.72363;93927.37;;;;
2020/10/26 01:57:45;;;;;;;7.749999;5.1;;;;;;;6.97;86.72363;93927.37;;;;
2020/10/26 01:58:47;;;;;;;7.749999;5.1;;;;;;;6.97;86.72363;93927.37;;;;
2020/10/26 01:59:48;;;;;;;7.749999;5.1;;;;;;;6.97;86.72363;93927.37;;;;
2020/10/26 02:00:48;;;;;;;7.749999;5.1;;;;;;;6.97;86.72363;93927.37;;;;
2020/10/26 02:01:49;;;;;;;7.749999;5.1;;;;;;;6.97;86.72363;93927.37;;;;
2020/10/26 02:02:49;;;;;;;7.749999;5.1;;;;;;;6.97;86.72363;93927.37;;;;
2020/10/26 02:03:50;;;;;;;7.749999;5.1;;;;;;;6.97;86.72363;93927.37;;;;
2020/10/26 02:04:50;;;;;;;7.749999;5.1;;;;;;;6.97;86.72363;93927.37;;;;
2020/10/26 02:05:51;;;;;;;7.749999;5.1;;;;;;;6.97;86.72363;93927.37;;;;
2020/10/26 02:06:51;;;;;;;5.45;4.8;;;;;;;7.03;86.99902;93911.22;;;;
2020/10/26 02:07:52;;;;;;;5.45;4.8;;;;;;;7.03;86.99902;93911.22;;;;
2020/10/26 02:08:53;;;;;;;5.45;4.8;;;;;;;7.03;86.99902;93911.22;;;;
2020/10/26 02:09:54;;;;;;;5.45;4.8;;;;;;;7.03;86.99902;93911.22;;;;
2020/10/26 02:10:54;;;;;;;5.45;4.8;;;;;;;7.03;86.99902;93911.22;;;;
2020/10/26 02:11:57;;;;;;;5.45;4.8;;;;;;;7.03;86.99902;93911.22;;;;
2020/10/26 02:12:57;;;;;;;5.45;4.8;;;;;;;7.03;86.99902;93911.22;;;;
2020/10/26 02:13:58;;;;;;;5.45;4.8;;;;;;;7.03;86.99902;93911.22;;;;
2020/10/26 02:15:01;;;;;;;5.45;4.8;;;;;;;7.03;86.99902;93911.22;;;;
2020/10/26 02:16:02;;;;;;;5.45;4.8;;;;;;;7.03;86.99902;93911.22;;;;
2020/10/26 02:17:03;;;;;;;5.45;4.8;;;;;;;7.03;86.99902;93911.22;;;;
2020/10/26 02:18:03;;;;;;;5.05;4.25;;;;;;;7.01;87.30176;93916.02;;;;
2020/10/26 02:19:04;;;;;;;5.05;4.25;;;;;;;7.01;87.30176;93916.02;;;;
2020/10/26 02:20:06;;;;;;;5.05;4.25;;;;;;;7.01;87.30176;93916.02;;;;
2020/10/26 02:21:07;;;;;;;5.05;4.25;;;;;;;7.01;87.30176;93916.02;;;;
2020/10/26 02:22:07;;;;;;;5.05;4.25;;;;;;;7.01;87.30176;93916.02;;;;
2020/10/26 02:23:08;;;;;;;5.05;4.25;;;;;;;7.01;87.30176;93916.02;;;;
2020/10/26 02:24:08;;;;;;;5.05;4.25;;;;;;;7.01;87.30176;93916.02;;;;
2020/10/26 02:25:09;;;;;;;5.05;4.25;;;;;;;7.01;87.30176;93916.02;;;;
2020/10/26 02:26:09;;;;;;;5.05;4.25;;;;;;;7.01;87.30176;93916.02;;;;
2020/10/26 02:27:14;;;;;;;5.05;4.25;;;;;;;7.01;87.30176;93916.02;;;;
2020/10/26 02:28:15;;;;;;;4.45;3.95;;;;;;;7.06;87.49121;93907.62;;;;
2020/10/26 02:29:15;;;;;;;4.45;3.95;;;;;;;7.06;87.49121;93907.62;;;;
2020/10/26 02:30:16;;;;;;;4.45;3.95;;;;;;;7.06;87.49121;93907.62;;;;
2020/10/26 02:31:16;;;;;;;4.45;3.95;;;;;;;7.06;87.49121;93907.62;;;;
2020/10/26 02:32:19;;;;;;;4.45;3.95;;;;;;;7.06;87.49121;93907.62;;;;
2020/10/26 02:33:19;;;;;;;4.45;3.95;;;;;;;7.06;87.49121;93907.62;;;;
2020/10/26 02:34:20;;;;;;;4.45;3.95;;;;;;;7.06;87.49121;93907.62;;;;
2020/10/26 02:35:20;;;;;;;4.45;3.95;;;;;;;7.06;87.49121;93907.62;;;;
2020/10/26 02:36:21;;;;;;;4.45;3.95;;;;;;;7.06;87.49121;93907.62;;;;
2020/10/26 02:37:21;;;;;;;4.45;3.95;;;;;;;7.06;87.49121;93907.62;;;;
2020/10/26 02:38:22;;;;;;;4.45;3.95;;;;;;;7.06;87.49121;93907.62;;;;
2020/10/26 02:39:22;;;;;;;3.9;3.5;;;;;;;6.97;87.52734;93900.12;;;;
2020/10/26 02:40:23;;;;;;;3.9;3.5;;;;;;;6.97;87.52734;93900.12;;;;
2020/10/26 02:41:23;;;;;;;3.9;3.5;;;;;;;6.97;87.52734;93900.12;;;;
2020/10/26 02:42:24;;;;;;;3.9;3.5;;;;;;;6.97;87.52734;93900.12;;;;
2020/10/26 02:43:25;;;;;;;3.9;3.5;;;;;;;6.97;87.52734;93900.12;;;;
2020/10/26 02:44:26;;;;;;;3.9;3.5;;;;;;;6.97;87.52734;93900.12;;;;
2020/10/26 02:45:26;;;;;;;3.9;3.5;;;;;;;6.97;87.52734;93900.12;;;;
2020/10/26 02:46:27;;;;;;;3.9;3.5;;;;;;;6.97;87.52734;93900.12;;;;
2020/10/26 02:47:27;;;;;;;3.9;3.5;;;;;;;6.97;87.52734;93900.12;;;;
2020/10/26 02:48:28;;;;;;;3.9;3.5;;;;;;;6.97;87.52734;93900.12;;;;
2020/10/26 02:49:28;;;;;;;4.25;3.55;;;;;;;6.92;87.93848;93875.51;;;;
2020/10/26 02:50:29;;;;;;;4.25;3.55;;;;;;;6.92;87.93848;93875.51;;;;
2020/10/26 02:51:30;;;;;;;4.25;3.55;;;;;;;6.92;87.93848;93875.51;;;;
2020/10/26 02:52:30;;;;;;;4.25;3.55;;;;;;;6.92;87.93848;93875.51;;;;
2020/10/26 02:53:31;;;;;;;4.25;3.55;;;;;;;6.92;87.93848;93875.51;;;;
2020/10/26 02:54:31;;;;;;;4.25;3.55;;;;;;;6.92;87.93848;93875.51;;;;
2020/10/26 02:55:32;;;;;;;4.25;3.55;;;;;;;6.92;87.93848;93875.51;;;;
2020/10/26 02:56:33;;;;;;;4.25;3.55;;;;;;;6.92;87.93848;93875.51;;;;
2020/10/26 02:57:33;;;;;;;4.25;3.55;;;;;;;6.92;87.93848;93875.51;;;;
2020/10/26 02:58:33;;;;;;;4.25;3.55;;;;;;;6.92;87.93848;93875.51;;;;
2020/10/26 02:59:34;;;;;;;4.25;3.55;;;;;;;6.92;87.93848;93875.51;;;;
2020/10/26 03:00:34;;;;;;;4.45;3.7;;;;;;;6.72;88.29102;93872.42;;;;
2020/10/26 03:01:35;;;;;;;4.45;3.7;;;;;;;6.72;88.29102;93872.42;;;;
2020/10/26 03:02:35;;;;;;;4.45;3.7;;;;;;;6.72;88.29102;93872.42;;;;
2020/10/26 03:03:36;;;;;;;4.45;3.7;;;;;;;6.72;88.29102;93872.42;;;;
2020/10/26 03:04:37;;;;;;;4.45;3.7;;;;;;;6.72;88.29102;93872.42;;;;
2020/10/26 03:05:37;;;;;;;4.45;3.7;;;;;;;6.72;88.29102;93872.42;;;;
2020/10/26 03:06:37;;;;;;;4.45;3.7;;;;;;;6.72;88.29102;93872.42;;;;
2020/10/26 03:07:38;;;;;;;4.45;3.7;;;;;;;6.72;88.29102;93872.42;;;;
2020/10/26 03:08:38;;;;;;;4.45;3.7;;;;;;;6.72;88.29102;93872.42;;;;
2020/10/26 03:09:39;;;;;;;4.45;3.7;;;;;;;6.72;88.29102;93872.42;;;;
2020/10/26 03:10:40;;;;;;;4;3.6;;;;;;;6.6;88.80273;93861.52;;;;
2020/10/26 03:11:40;;;;;;;4;3.6;;;;;;;6.6;88.80273;93861.52;;;;
2020/10/26 03:12:41;;;;;;;4;3.6;;;;;;;6.6;88.80273;93861.52;;;;
2020/10/26 03:13:41;;;;;;;4;3.6;;;;;;;6.6;88.80273;93861.52;;;;
2020/10/26 03:14:42;;;;;;;4;3.6;;;;;;;6.6;88.80273;93861.52;;;;
2020/10/26 03:15:42;;;;;;;4;3.6;;;;;;;6.6;88.80273;93861.52;;;;
2020/10/26 03:16:43;;;;;;;4;3.6;;;;;;;6.6;88.80273;93861.52;;;;
2020/10/26 03:17:43;;;;;;;4;3.6;;;;;;;6.6;88.80273;93861.52;;;;
2020/10/26 03:18:44;;;;;;;4;3.6;;;;;;;6.6;88.80273;93861.52;;;;
2020/10/26 03:19:44;;;;;;;4;3.6;;;;;;;6.6;88.80273;93861.52;;;;
2020/10/26 03:20:45;;;;;;;4;3.6;;;;;;;6.6;88.80273;93861.52;;;;
2020/10/26 03:21:46;;;;;;;5.6;4.149999;;;;;;;6.56;88.93164;93854.61;;;;
2020/10/26 03:22:46;;;;;;;5.6;4.149999;;;;;;;6.56;88.93164;93854.61;;;;
2020/10/26 03:23:47;;;;;;;5.6;4.149999;;;;;;;6.56;88.93164;93854.61;;;;
2020/10/26 03:24:47;;;;;;;5.6;4.149999;;;;;;;6.56;88.93164;93854.61;;;;
2020/10/26 03:25:48;;;;;;;5.6;4.149999;;;;;;;6.56;88.93164;93854.61;;;;
2020/10/26 03:26:48;;;;;;;5.6;4.149999;;;;;;;6.56;88.93164;93854.61;;;;
2020/10/26 03:27:49;;;;;;;5.6;4.149999;;;;;;;6.56;88.93164;93854.61;;;;
2020/10/26 03:28:50;;;;;;;5.6;4.149999;;;;;;;6.56;88.93164;93854.61;;;;
2020/10/26 03:29:50;;;;;;;5.6;4.149999;;;;;;;6.56;88.93164;93854.61;;;;
2020/10/26 03:30:50;;;;;;;5.6;4.149999;;;;;;;6.56;88.93164;93854.61;;;;
2020/10/26 03:31:51;;;;;;;5.6;4.149999;;;;;;;6.56;88.93164;93854.61;;;;
2020/10/26 03:32:51;;;;;;;5.15;4.149999;;;;;;;6.61;89.20898;93859.92;;;;
2020/10/26 03:33:52;;;;;;;5.15;4.149999;;;;;;;6.61;89.20898;93859.92;;;;
2020/10/26 03:34:52;;;;;;;5.15;4.149999;;;;;;;6.61;89.20898;93859.92;;;;
2020/10/26 03:35:53;;;;;;;5.15;4.149999;;;;;;;6.61;89.20898;93859.92;;;;
2020/10/26 03:36:54;;;;;;;5.15;4.149999;;;;;;;6.61;89.20898;93859.92;;;;
2020/10/26 03:37:54;;;;;;;5.15;4.149999;;;;;;;6.61;89.20898;93859.92;;;;
2020/10/26 03:38:55;;;;;;;5.15;4.149999;;;;;;;6.61;89.20898;93859.92;;;;
2020/10/26 03:39:55;;;;;;;5.15;4.149999;;;;;;;6.61;89.20898;93859.92;;;;
2020/10/26 03:40:56;;;;;;;5.15;4.149999;;;;;;;6.61;89.20898;93859.92;;;;
2020/10/26 03:41:56;;;;;;;5.15;4.149999;;;;;;;6.61;89.20898;93859.92;;;;
2020/10/26 03:42:57;;;;;;;5.850001;4.6;;;;;;;6.66;89.26953;93847.1;;;;
2020/10/26 03:43:57;;;;;;;5.850001;4.6;;;;;;;6.66;89.26953;93847.1;;;;
2020/10/26 03:44:58;;;;;;;5.850001;4.6;;;;;;;6.66;89.26953;93847.1;;;;
2020/10/26 03:45:58;;;;;;;5.850001;4.6;;;;;;;6.66;89.26953;93847.1;;;;
2020/10/26 03:46:59;;;;;;;5.850001;4.6;;;;;;;6.66;89.26953;93847.1;;;;
2020/10/26 03:47:59;;;;;;;5.850001;4.6;;;;;;;6.66;89.26953;93847.1;;;;
2020/10/26 03:49:00;;;;;;;5.850001;4.6;;;;;;;6.66;89.26953;93847.1;;;;
2020/10/26 03:50:02;;;;;;;5.850001;4.6;;;;;;;6.66;89.26953;93847.1;;;;
2020/10/26 03:51:04;;;;;;;5.850001;4.6;;;;;;;6.66;89.26953;93847.1;;;;
2020/10/26 03:52:04;;;;;;;5.850001;4.6;;;;;;;6.66;89.26953;93847.1;;;;
2020/10/26 03:53:05;;;;;;;5.850001;4.6;;;;;;;6.66;89.26953;93847.1;;;;
2020/10/26 03:54:07;;;;;;;4.85;4.35;;;;;;;6.79;89.42383;93847.17;;;;
2020/10/26 03:55:08;;;;;;;4.85;4.35;;;;;;;6.79;89.42383;93847.17;;;;
2020/10/26 03:56:09;;;;;;;4.85;4.35;;;;;;;6.79;89.42383;93847.17;;;;
2020/10/26 03:57:09;;;;;;;4.85;4.35;;;;;;;6.79;89.42383;93847.17;;;;
2020/10/26 03:58:10;;;;;;;4.85;4.35;;;;;;;6.79;89.42383;93847.17;;;;
2020/10/26 03:59:10;;;;;;;4.85;4.35;;;;;;;6.79;89.42383;93847.17;;;;
2020/10/26 04:00:11;;;;;;;4.85;4.35;;;;;;;6.79;89.42383;93847.17;;;;
2020/10/26 04:01:11;;;;;;;4.85;4.35;;;;;;;6.79;89.42383;93847.17;;;;
2020/10/26 04:02:14;;;;;;;4.85;4.35;;;;;;;6.79;89.42383;93847.17;;;;
2020/10/26 04:03:14;;;;;;;4.85;4.35;;;;;;;6.79;89.42383;93847.17;;;;
2020/10/26 04:04:15;;;;;;;5;4.5;;;;;;;6.85;89.47754;93829.27;;;;
2020/10/26 04:05:15;;;;;;;5;4.5;;;;;;;6.85;89.47754;93829.27;;;;
2020/10/26 04:06:16;;;;;;;5;4.5;;;;;;;6.85;89.47754;93829.27;;;;
2020/10/26 04:07:17;;;;;;;5;4.5;;;;;;;6.85;89.47754;93829.27;;;;
2020/10/26 04:08:17;;;;;;;5;4.5;;;;;;;6.85;89.47754;93829.27;;;;
2020/10/26 04:09:18;;;;;;;5;4.5;;;;;;;6.85;89.47754;93829.27;;;;
2020/10/26 04:10:18;;;;;;;5;4.5;;;;;;;6.85;89.47754;93829.27;;;;
2020/10/26 04:11:20;;;;;;;5;4.5;;;;;;;6.85;89.47754;93829.27;;;;
2020/10/26 04:12:20;;;;;;;5;4.5;;;;;;;6.85;89.47754;93829.27;;;;
2020/10/26 04:13:21;;;;;;;5;4.5;;;;;;;6.85;89.47754;93829.27;;;;
2020/10/26 04:14:21;;;;;;;5;4.5;;;;;;;6.85;89.47754;93829.27;;;;
2020/10/26 04:15:22;;;;;;;5.15;4.650001;;;;;;;7;89.66895;93830.27;;;;
2020/10/26 04:16:22;;;;;;;5.15;4.650001;;;;;;;7;89.66895;93830.27;;;;
2020/10/26 04:17:23;;;;;;;5.15;4.650001;;;;;;;7;89.66895;93830.27;;;;
2020/10/26 04:18:23;;;;;;;5.15;4.650001;;;;;;;7;89.66895;93830.27;;;;
2020/10/26 04:19:24;;;;;;;5.15;4.650001;;;;;;;7;89.66895;93830.27;;;;
2020/10/26 04:20:24;;;;;;;5.15;4.650001;;;;;;;7;89.66895;93830.27;;;;
2020/10/26 04:21:25;;;;;;;5.15;4.650001;;;;;;;7;89.66895;93830.27;;;;
2020/10/26 04:22:26;;;;;;;5.15;4.650001;;;;;;;7;89.66895;93830.27;;;;
2020/10/26 04:23:26;;;;;;;5.15;4.650001;;;;;;;7;89.66895;93830.27;;;;
2020/10/26 04:24:27;;;;;;;5.15;4.650001;;;;;;;7;89.66895;93830.27;;;;
2020/10/26 04:25:28;;;;;;;5.55;4.900001;;;;;;;7.1;89.87891;93802.23;;;;
2020/10/26 04:26:28;;;;;;;5.55;4.900001;;;;;;;7.1;89.87891;93802.23;;;;
2020/10/26 04:27:29;;;;;;;5.55;4.900001;;;;;;;7.1;89.87891;93802.23;;;;
2020/10/26 04:28:30;;;;;;;5.55;4.900001;;;;;;;7.1;89.87891;93802.23;;;;
2020/10/26 04:29:30;;;;;;;5.55;4.900001;;;;;;;7.1;89.87891;93802.23;;;;
2020/10/26 04:30:31;;;;;;;5.55;4.900001;;;;;;;7.1;89.87891;93802.23;;;;
2020/10/26 04:31:31;;;;;;;5.55;4.900001;;;;;;;7.1;89.87891;93802.23;;;;
2020/10/26 04:32:32;;;;;;;5.55;4.900001;;;;;;;7.1;89.87891;93802.23;;;;
2020/10/26 04:33:32;;;;;;;5.55;4.900001;;;;;;;7.1;89.87891;93802.23;;;;
2020/10/26 04:34:33;;;;;;;5.55;4.900001;;;;;;;7.1;89.87891;93802.23;;;;
2020/10/26 04:35:33;;;;;;;5.55;4.900001;;;;;;;7.1;89.87891;93802.23;;;;
2020/10/26 04:36:34;;;;;;;5.2;4.7;;;;;;;7.19;90.0127;93798.16;;;;
2020/10/26 04:37:34;;;;;;;5.2;4.7;;;;;;;7.19;90.0127;93798.16;;;;
2020/10/26 04:38:35;;;;;;;5.2;4.7;;;;;;;7.19;90.0127;93798.16;;;;
2020/10/26 04:39:35;;;;;;;5.2;4.7;;;;;;;7.19;90.0127;93798.16;;;;
2020/10/26 04:40:36;;;;;;;5.2;4.7;;;;;;;7.19;90.0127;93798.16;;;;
2020/10/26 04:41:37;;;;;;;5.2;4.7;;;;;;;7.19;90.0127;93798.16;;;;
2020/10/26 04:42:37;;;;;;;5.2;4.7;;;;;;;7.19;90.0127;93798.16;;;;
2020/10/26 04:43:46;;;;;;;5.2;4.7;;;;;;;7.19;90.0127;93798.16;;;;
2020/10/26 04:44:47;;;;;;;5.2;4.7;;;;;;;7.19;90.0127;93798.16;;;;
2020/10/26 04:45:48;;;;;;;5.2;4.7;;;;;;;7.19;90.0127;93798.16;;;;
2020/10/26 04:46:48;;;;;;;5.799999;4.75;;;;;;;6.99;90.25684;93784.38;;;;
2020/10/26 04:47:49;;;;;;;5.799999;4.75;;;;;;;6.99;90.25684;93784.38;;;;
2020/10/26 04:48:50;;;;;;;5.799999;4.75;;;;;;;6.99;90.25684;93784.38;;;;
2020/10/26 04:49:51;;;;;;;5.799999;4.75;;;;;;;6.99;90.25684;93784.38;;;;
2020/10/26 04:50:51;;;;;;;5.799999;4.75;;;;;;;6.99;90.25684;93784.38;;;;
2020/10/26 04:51:52;;;;;;;5.799999;4.75;;;;;;;6.99;90.25684;93784.38;;;;
2020/10/26 04:52:53;;;;;;;5.799999;4.75;;;;;;;6.99;90.25684;93784.38;;;;
2020/10/26 04:54:03;;;;;;;5.799999;4.75;;;;;;;6.99;90.25684;93784.38;;;;
2020/10/26 04:55:04;;;;;;;5.799999;4.75;;;;;;;6.99;90.25684;93784.38;;;;
2020/10/26 04:56:05;;;;;;;5.799999;4.75;;;;;;;6.99;90.25684;93784.38;;;;
2020/10/26 04:57:13;;;;;;;5.799999;4.75;;;;;;;6.99;90.25684;93784.38;;;;
2020/10/26 04:58:14;;;;;;;6;5.2;;;;;;;6.8;90.97754;93776.35;;;;
2020/10/26 04:59:26;;;;;;;6;5.2;;;;;;;6.8;90.97754;93776.35;;;;
2020/10/26 05:00:35;;;;;;;6;5.2;;;;;;;6.8;90.97754;93776.35;;;;
2020/10/26 05:01:36;;;;;;;6;5.2;;;;;;;6.8;90.97754;93776.35;;;;
2020/10/26 05:02:37;;;;;;;6;5.2;;;;;;;6.8;90.97754;93776.35;;;;
2020/10/26 05:03:38;;;;;;;6;5.2;;;;;;;6.8;90.97754;93776.35;;;;
2020/10/26 05:04:38;;;;;;;6;5.2;;;;;;;6.8;90.97754;93776.35;;;;
2020/10/26 05:05:41;;;;;;;6;5.2;;;;;;;6.8;90.97754;93776.35;;;;
2020/10/26 05:06:42;;;;;;;6;5.2;;;;;;;6.8;90.97754;93776.35;;;;
2020/10/26 05:07:46;;;;;;;6;5.2;;;;;;;6.8;90.97754;93776.35;;;;
2020/10/26 05:08:54;;;;;;;4.950001;4.5;;;;;;;6.56;91.44531;93770.03;;;;
2020/10/26 05:09:58;;;;;;;4.950001;4.5;;;;;;;6.56;91.44531;93770.03;;;;
2020/10/26 05:11:01;;;;;;;4.950001;4.5;;;;;;;6.56;91.44531;93770.03;;;;
2020/10/26 05:12:03;;;;;;;4.950001;4.5;;;;;;;6.56;91.44531;93770.03;;;;
2020/10/26 05:13:11;;;;;;;4.950001;4.5;;;;;;;6.56;91.44531;93770.03;;;;
2020/10/26 05:14:11;;;;;;;4.950001;4.5;;;;;;;6.56;91.44531;93770.03;;;;
2020/10/26 05:15:12;;;;;;;4.950001;4.5;;;;;;;6.56;91.44531;93770.03;;;;
2020/10/26 05:16:17;;;;;;;4.950001;4.5;;;;;;;6.56;91.44531;93770.03;;;;
2020/10/26 05:17:17;;;;;;;4.950001;4.5;;;;;;;6.56;91.44531;93770.03;;;;
2020/10/26 05:18:23;;;;;;;4.950001;4.5;;;;;;;6.56;91.44531;93770.03;;;;
2020/10/26 05:19:27;;;;;;;5.95;4.35;;;;;;;6.43;91.81738;93778.94;;;;
2020/10/26 05:20:27;;;;;;;5.95;4.35;;;;;;;6.43;91.81738;93778.94;;;;
2020/10/26 05:21:30;;;;;;;5.95;4.35;;;;;;;6.43;91.81738;93778.94;;;;
2020/10/26 05:22:30;;;;;;;5.95;4.35;;;;;;;6.43;91.81738;93778.94;;;;
2020/10/26 05:23:31;;;;;;;5.95;4.35;;;;;;;6.43;91.81738;93778.94;;;;
2020/10/26 05:24:35;;;;;;;5.95;4.35;;;;;;;6.43;91.81738;93778.94;;;;
2020/10/26 05:25:35;;;;;;;5.95;4.35;;;;;;;6.43;91.81738;93778.94;;;;
2020/10/26 05:26:36;;;;;;;5.95;4.35;;;;;;;6.43;91.81738;93778.94;;;;
2020/10/26 05:27:37;;;;;;;5.95;4.35;;;;;;;6.43;91.81738;93778.94;;;;
2020/10/26 05:28:38;;;;;;;5.95;4.35;;;;;;;6.43;91.81738;93778.94;;;;
2020/10/26 05:29:51;;;;;;;6.2;5.25;;;;;;;6.19;91.93457;93750.75;;;;
2020/10/26 05:30:55;;;;;;;6.2;5.25;;;;;;;6.19;91.93457;93750.75;;;;
2020/10/26 05:31:57;;;;;;;6.2;5.25;;;;;;;6.19;91.93457;93750.75;;;;
2020/10/26 05:33:01;;;;;;;6.2;5.25;;;;;;;6.19;91.93457;93750.75;;;;
2020/10/26 05:34:03;;;;;;;6.2;5.25;;;;;;;6.19;91.93457;93750.75;;;;
2020/10/26 05:35:04;;;;;;;6.2;5.25;;;;;;;6.19;91.93457;93750.75;;;;
2020/10/26 05:36:07;;;;;;;6.2;5.25;;;;;;;6.19;91.93457;93750.75;;;;
2020/10/26 05:37:08;;;;;;;6.2;5.25;;;;;;;6.19;91.93457;93750.75;;;;
2020/10/26 05:38:09;;;;;;;6.2;5.25;;;;;;;6.19;91.93457;93750.75;;;;
2020/10/26 05:39:12;;;;;;;6.2;5.25;;;;;;;6.19;91.93457;93750.75;;;;
2020/10/26 05:40:12;;;;;;;6.6;5.299999;;;;;;;6.01;92.14941;93769.62;;;;
2020/10/26 05:41:13;;;;;;;6.6;5.299999;;;;;;;6.01;92.14941;93769.62;;;;
2020/10/26 05:42:15;;;;;;;6.6;5.299999;;;;;;;6.01;92.14941;93769.62;;;;
2020/10/26 05:43:16;;;;;;;6.6;5.299999;;;;;;;6.01;92.14941;93769.62;;;;